sensor_id;sensor_type;location;lat;lon;timestamp;P1;durP1;ratioP1;P2;durP2;ratioP2
52208;SDS011;38507;53.132;6.394;2023-07-31T00:02:17;5.55;;;3.75;;
52208;SDS011;38507;53.132;6.394;2023-07-31T00:04:42;6.43;;;3.58;;
52208;SDS011;38507;53.132;6.394;2023-07-31T00:07:08;5.05;;;3.58;;
52208;SDS011;38507;53.132;6.394;2023-07-31T00:09:34;4.82;;;2.90;;
52208;SDS011;38507;53.132;6.394;2023-07-31T00:11:59;4.13;;;2.70;;
52208;SDS011;38507;53.132;6.394;2023-07-31T00:14:25;5.65;;;3.03;;
52208;SDS011;38507;53.132;6.394;2023-07-31T00:16:51;3.92;;;2.60;;
52208;SDS011;38507;53.132;6.394;2023-07-31T00:19:16;5.00;;;2.50;;
52208;SDS011;38507;53.132;6.394;2023-07-31T00:21:42;4.07;;;2.30;;
52208;SDS011;38507;53.132;6.394;2023-07-31T00:24:08;4.38;;;2.70;;
52208;SDS011;38507;53.132;6.394;2023-07-31T00:26:34;3.90;;;2.60;;
52208;SDS011;38507;53.132;6.394;2023-07-31T00:28:59;5.70;;;3.22;;
52208;SDS011;38507;53.132;6.394;2023-07-31T00:31:25;4.53;;;3.00;;
52208;SDS011;38507;53.132;6.394;2023-07-31T00:33:51;5.25;;;3.15;;
52208;SDS011;38507;53.132;6.394;2023-07-31T00:36:16;4.70;;;3.13;;
52208;SDS011;38507;53.132;6.394;2023-07-31T00:38:43;6.25;;;3.42;;
52208;SDS011;38507;53.132;6.394;2023-07-31T00:41:09;4.65;;;3.53;;
52208;SDS011;38507;53.132;6.394;2023-07-31T00:43:34;6.18;;;3.60;;
52208;SDS011;38507;53.132;6.394;2023-07-31T00:46:00;5.97;;;3.22;;
52208;SDS011;38507;53.132;6.394;2023-07-31T00:48:26;6.97;;;2.90;;
52208;SDS011;38507;53.132;6.394;2023-07-31T00:50:51;4.20;;;3.20;;
52208;SDS011;38507;53.132;6.394;2023-07-31T00:53:17;3.28;;;2.45;;
52208;SDS011;38507;53.132;6.394;2023-07-31T00:55:43;6.50;;;2.90;;
52208;SDS011;38507;53.132;6.394;2023-07-31T00:58:09;5.10;;;3.00;;
52208;SDS011;38507;53.132;6.394;2023-07-31T01:00:35;3.90;;;2.78;;
52208;SDS011;38507;53.132;6.394;2023-07-31T01:03:00;4.53;;;3.00;;
52208;SDS011;38507;53.132;6.394;2023-07-31T01:05:49;4.63;;;3.20;;
52208;SDS011;38507;53.132;6.394;2023-07-31T01:08:31;5.07;;;2.90;;
52208;SDS011;38507;53.132;6.394;2023-07-31T01:13:40;5.53;;;2.95;;
52208;SDS011;38507;53.132;6.394;2023-07-31T01:16:07;5.82;;;2.88;;
52208;SDS011;38507;53.132;6.394;2023-07-31T01:18:32;3.50;;;2.65;;
52208;SDS011;38507;53.132;6.394;2023-07-31T01:21:03;5.25;;;3.55;;
52208;SDS011;38507;53.132;6.394;2023-07-31T01:23:51;6.82;;;3.40;;
52208;SDS011;38507;53.132;6.394;2023-07-31T01:26:40;4.80;;;2.97;;
52208;SDS011;38507;53.132;6.394;2023-07-31T01:31:42;5.05;;;2.60;;
52208;SDS011;38507;53.132;6.394;2023-07-31T01:34:11;4.18;;;2.58;;
52208;SDS011;38507;53.132;6.394;2023-07-31T01:36:39;4.05;;;2.33;;
52208;SDS011;38507;53.132;6.394;2023-07-31T01:39:04;3.15;;;2.20;;
52208;SDS011;38507;53.132;6.394;2023-07-31T01:41:30;3.05;;;1.83;;
52208;SDS011;38507;53.132;6.394;2023-07-31T01:43:56;4.13;;;1.80;;
52208;SDS011;38507;53.132;6.394;2023-07-31T01:46:21;4.03;;;1.98;;
52208;SDS011;38507;53.132;6.394;2023-07-31T01:48:47;2.35;;;1.48;;
52208;SDS011;38507;53.132;6.394;2023-07-31T01:51:13;3.22;;;1.73;;
52208;SDS011;38507;53.132;6.394;2023-07-31T01:53:38;2.30;;;1.48;;
52208;SDS011;38507;53.132;6.394;2023-07-31T01:56:04;2.17;;;1.35;;
52208;SDS011;38507;53.132;6.394;2023-07-31T01:58:30;4.25;;;1.25;;
52208;SDS011;38507;53.132;6.394;2023-07-31T02:00:55;2.50;;;1.40;;
52208;SDS011;38507;53.132;6.394;2023-07-31T02:03:21;2.75;;;1.27;;
52208;SDS011;38507;53.132;6.394;2023-07-31T02:05:47;2.38;;;1.38;;
52208;SDS011;38507;53.132;6.394;2023-07-31T02:08:13;2.30;;;1.48;;
52208;SDS011;38507;53.132;6.394;2023-07-31T02:10:39;1.98;;;1.27;;
52208;SDS011;38507;53.132;6.394;2023-07-31T02:13:05;3.20;;;1.38;;
52208;SDS011;38507;53.132;6.394;2023-07-31T02:15:31;3.95;;;1.55;;
52208;SDS011;38507;53.132;6.394;2023-07-31T02:17:57;3.10;;;1.40;;
52208;SDS011;38507;53.132;6.394;2023-07-31T02:20:22;2.35;;;1.20;;
52208;SDS011;38507;53.132;6.394;2023-07-31T02:22:48;1.40;;;1.10;;
52208;SDS011;38507;53.132;6.394;2023-07-31T02:25:14;2.92;;;1.30;;
52208;SDS011;38507;53.132;6.394;2023-07-31T02:27:39;3.42;;;1.42;;
52208;SDS011;38507;53.132;6.394;2023-07-31T02:30:05;2.70;;;1.08;;
52208;SDS011;38507;53.132;6.394;2023-07-31T02:32:31;1.98;;;0.95;;
52208;SDS011;38507;53.132;6.394;2023-07-31T02:34:57;2.20;;;1.10;;
52208;SDS011;38507;53.132;6.394;2023-07-31T02:37:23;1.67;;;0.90;;
52208;SDS011;38507;53.132;6.394;2023-07-31T02:39:50;1.65;;;0.88;;
52208;SDS011;38507;53.132;6.394;2023-07-31T02:42:16;3.60;;;1.17;;
52208;SDS011;38507;53.132;6.394;2023-07-31T02:44:42;1.35;;;0.93;;
52208;SDS011;38507;53.132;6.394;2023-07-31T02:47:07;1.65;;;1.00;;
52208;SDS011;38507;53.132;6.394;2023-07-31T02:49:33;3.42;;;1.00;;
52208;SDS011;38507;53.132;6.394;2023-07-31T02:51:59;2.03;;;1.10;;
52208;SDS011;38507;53.132;6.394;2023-07-31T02:54:24;2.28;;;1.13;;
52208;SDS011;38507;53.132;6.394;2023-07-31T02:56:50;1.52;;;0.73;;
52208;SDS011;38507;53.132;6.394;2023-07-31T02:59:16;1.90;;;0.75;;
52208;SDS011;38507;53.132;6.394;2023-07-31T03:01:42;1.25;;;0.68;;
52208;SDS011;38507;53.132;6.394;2023-07-31T03:04:07;2.88;;;1.15;;
52208;SDS011;38507;53.132;6.394;2023-07-31T03:06:33;2.60;;;0.90;;
52208;SDS011;38507;53.132;6.394;2023-07-31T03:08:59;2.47;;;0.80;;
52208;SDS011;38507;53.132;6.394;2023-07-31T03:11:24;2.83;;;1.02;;
52208;SDS011;38507;53.132;6.394;2023-07-31T03:13:50;2.15;;;0.70;;
52208;SDS011;38507;53.132;6.394;2023-07-31T03:16:15;2.10;;;0.80;;
52208;SDS011;38507;53.132;6.394;2023-07-31T03:18:41;2.35;;;0.77;;
52208;SDS011;38507;53.132;6.394;2023-07-31T03:21:07;3.08;;;0.90;;
52208;SDS011;38507;53.132;6.394;2023-07-31T03:23:32;2.45;;;1.05;;
52208;SDS011;38507;53.132;6.394;2023-07-31T03:25:59;2.20;;;0.70;;
52208;SDS011;38507;53.132;6.394;2023-07-31T03:28:26;1.90;;;0.80;;
52208;SDS011;38507;53.132;6.394;2023-07-31T03:30:52;1.80;;;0.75;;
52208;SDS011;38507;53.132;6.394;2023-07-31T03:33:18;1.45;;;0.82;;
52208;SDS011;38507;53.132;6.394;2023-07-31T03:35:43;2.25;;;1.05;;
52208;SDS011;38507;53.132;6.394;2023-07-31T03:38:09;1.20;;;0.77;;
52208;SDS011;38507;53.132;6.394;2023-07-31T03:40:35;2.60;;;0.90;;
52208;SDS011;38507;53.132;6.394;2023-07-31T03:43:00;3.40;;;0.98;;
52208;SDS011;38507;53.132;6.394;2023-07-31T03:45:26;2.85;;;1.02;;
52208;SDS011;38507;53.132;6.394;2023-07-31T03:47:52;3.05;;;1.10;;
52208;SDS011;38507;53.132;6.394;2023-07-31T03:50:18;1.83;;;0.80;;
52208;SDS011;38507;53.132;6.394;2023-07-31T03:52:44;1.55;;;0.75;;
52208;SDS011;38507;53.132;6.394;2023-07-31T03:55:09;1.95;;;0.90;;
52208;SDS011;38507;53.132;6.394;2023-07-31T03:57:35;2.65;;;0.90;;
52208;SDS011;38507;53.132;6.394;2023-07-31T04:00:01;2.85;;;0.93;;
52208;SDS011;38507;53.132;6.394;2023-07-31T04:02:26;3.00;;;1.10;;
52208;SDS011;38507;53.132;6.394;2023-07-31T04:04:52;2.60;;;1.30;;
52208;SDS011;38507;53.132;6.394;2023-07-31T04:07:18;1.75;;;0.90;;
52208;SDS011;38507;53.132;6.394;2023-07-31T04:09:43;5.60;;;1.00;;
52208;SDS011;38507;53.132;6.394;2023-07-31T04:12:09;2.42;;;1.00;;
52208;SDS011;38507;53.132;6.394;2023-07-31T04:14:35;2.83;;;1.00;;
52208;SDS011;38507;53.132;6.394;2023-07-31T04:17:00;1.63;;;0.90;;
52208;SDS011;38507;53.132;6.394;2023-07-31T04:19:26;4.50;;;1.15;;
52208;SDS011;38507;53.132;6.394;2023-07-31T04:21:51;1.98;;;1.10;;
52208;SDS011;38507;53.132;6.394;2023-07-31T04:24:17;1.85;;;1.15;;
52208;SDS011;38507;53.132;6.394;2023-07-31T04:26:49;3.10;;;1.08;;
52208;SDS011;38507;53.132;6.394;2023-07-31T04:29:18;2.50;;;1.05;;
52208;SDS011;38507;53.132;6.394;2023-07-31T04:31:44;2.20;;;0.95;;
52208;SDS011;38507;53.132;6.394;2023-07-31T04:34:10;3.72;;;0.90;;
52208;SDS011;38507;53.132;6.394;2023-07-31T04:36:36;3.17;;;1.15;;
52208;SDS011;38507;53.132;6.394;2023-07-31T04:39:02;2.53;;;0.80;;
52208;SDS011;38507;53.132;6.394;2023-07-31T04:41:28;2.42;;;0.80;;
52208;SDS011;38507;53.132;6.394;2023-07-31T04:43:53;1.83;;;0.75;;
52208;SDS011;38507;53.132;6.394;2023-07-31T04:46:19;1.73;;;0.85;;
52208;SDS011;38507;53.132;6.394;2023-07-31T04:48:45;4.40;;;0.90;;
52208;SDS011;38507;53.132;6.394;2023-07-31T04:51:10;2.10;;;0.80;;
52208;SDS011;38507;53.132;6.394;2023-07-31T04:53:36;1.15;;;0.50;;
52208;SDS011;38507;53.132;6.394;2023-07-31T04:56:02;3.53;;;0.65;;
52208;SDS011;38507;53.132;6.394;2023-07-31T04:58:28;1.25;;;0.90;;
52208;SDS011;38507;53.132;6.394;2023-07-31T05:00:53;1.55;;;0.82;;
52208;SDS011;38507;53.132;6.394;2023-07-31T05:03:19;2.15;;;0.85;;
52208;SDS011;38507;53.132;6.394;2023-07-31T05:05:45;1.45;;;0.80;;
52208;SDS011;38507;53.132;6.394;2023-07-31T05:08:10;1.15;;;0.80;;
52208;SDS011;38507;53.132;6.394;2023-07-31T05:10:36;3.45;;;1.10;;
52208;SDS011;38507;53.132;6.394;2023-07-31T05:13:02;4.10;;;1.27;;
52208;SDS011;38507;53.132;6.394;2023-07-31T05:15:28;1.88;;;1.05;;
52208;SDS011;38507;53.132;6.394;2023-07-31T05:17:53;3.63;;;1.10;;
52208;SDS011;38507;53.132;6.394;2023-07-31T05:20:20;3.90;;;1.27;;
52208;SDS011;38507;53.132;6.394;2023-07-31T05:22:45;3.30;;;1.60;;
52208;SDS011;38507;53.132;6.394;2023-07-31T05:25:11;3.55;;;1.50;;
52208;SDS011;38507;53.132;6.394;2023-07-31T05:27:37;2.45;;;1.05;;
52208;SDS011;38507;53.132;6.394;2023-07-31T05:30:03;3.63;;;1.50;;
52208;SDS011;38507;53.132;6.394;2023-07-31T05:32:30;2.78;;;1.30;;
52208;SDS011;38507;53.132;6.394;2023-07-31T05:34:56;4.13;;;1.67;;
52208;SDS011;38507;53.132;6.394;2023-07-31T05:37:21;5.45;;;1.80;;
52208;SDS011;38507;53.132;6.394;2023-07-31T05:39:47;5.18;;;1.63;;
52208;SDS011;38507;53.132;6.394;2023-07-31T05:42:13;4.07;;;1.40;;
52208;SDS011;38507;53.132;6.394;2023-07-31T05:44:39;4.28;;;1.75;;
52208;SDS011;38507;53.132;6.394;2023-07-31T05:47:04;9.10;;;2.00;;
52208;SDS011;38507;53.132;6.394;2023-07-31T05:49:30;4.90;;;1.63;;
52208;SDS011;38507;53.132;6.394;2023-07-31T05:51:56;5.35;;;1.70;;
52208;SDS011;38507;53.132;6.394;2023-07-31T05:54:21;4.80;;;2.13;;
52208;SDS011;38507;53.132;6.394;2023-07-31T05:56:47;6.18;;;2.03;;
52208;SDS011;38507;53.132;6.394;2023-07-31T05:59:13;8.75;;;2.33;;
52208;SDS011;38507;53.132;6.394;2023-07-31T06:01:39;8.02;;;3.25;;
52208;SDS011;38507;53.132;6.394;2023-07-31T06:04:04;11.18;;;3.75;;
52208;SDS011;38507;53.132;6.394;2023-07-31T06:06:30;15.15;;;4.10;;
52208;SDS011;38507;53.132;6.394;2023-07-31T06:08:56;19.40;;;4.85;;
52208;SDS011;38507;53.132;6.394;2023-07-31T06:11:22;13.02;;;4.85;;
52208;SDS011;38507;53.132;6.394;2023-07-31T06:13:48;20.83;;;6.28;;
52208;SDS011;38507;53.132;6.394;2023-07-31T06:16:15;19.15;;;5.82;;
52208;SDS011;38507;53.132;6.394;2023-07-31T06:18:41;19.23;;;5.82;;
52208;SDS011;38507;53.132;6.394;2023-07-31T06:21:07;23.35;;;6.40;;
52208;SDS011;38507;53.132;6.394;2023-07-31T06:23:33;19.83;;;5.75;;
52208;SDS011;38507;53.132;6.394;2023-07-31T06:25:58;20.40;;;6.82;;
52208;SDS011;38507;53.132;6.394;2023-07-31T06:28:27;21.42;;;7.35;;
52208;SDS011;38507;53.132;6.394;2023-07-31T06:30:54;23.17;;;5.97;;
52208;SDS011;38507;53.132;6.394;2023-07-31T06:33:20;24.02;;;6.95;;
52208;SDS011;38507;53.132;6.394;2023-07-31T06:35:45;26.58;;;7.30;;
52208;SDS011;38507;53.132;6.394;2023-07-31T06:38:11;21.08;;;5.80;;
52208;SDS011;38507;53.132;6.394;2023-07-31T06:40:37;22.58;;;5.97;;
52208;SDS011;38507;53.132;6.394;2023-07-31T06:43:03;21.33;;;5.70;;
52208;SDS011;38507;53.132;6.394;2023-07-31T06:45:36;27.17;;;6.50;;
52208;SDS011;38507;53.132;6.394;2023-07-31T06:48:03;20.05;;;5.82;;
52208;SDS011;38507;53.132;6.394;2023-07-31T06:50:32;24.33;;;5.97;;
52208;SDS011;38507;53.132;6.394;2023-07-31T06:52:58;23.58;;;5.63;;
52208;SDS011;38507;53.132;6.394;2023-07-31T06:55:24;24.55;;;5.88;;
52208;SDS011;38507;53.132;6.394;2023-07-31T06:57:51;19.45;;;6.15;;
52208;SDS011;38507;53.132;6.394;2023-07-31T07:00:18;18.90;;;6.07;;
52208;SDS011;38507;53.132;6.394;2023-07-31T07:02:45;21.98;;;6.18;;
52208;SDS011;38507;53.132;6.394;2023-07-31T07:05:12;19.95;;;5.72;;
52208;SDS011;38507;53.132;6.394;2023-07-31T07:07:38;22.13;;;6.40;;
52208;SDS011;38507;53.132;6.394;2023-07-31T07:10:04;18.95;;;5.95;;
52208;SDS011;38507;53.132;6.394;2023-07-31T07:12:30;23.50;;;6.15;;
52208;SDS011;38507;53.132;6.394;2023-07-31T07:14:57;19.52;;;6.32;;
52208;SDS011;38507;53.132;6.394;2023-07-31T07:17:23;20.98;;;6.00;;
52208;SDS011;38507;53.132;6.394;2023-07-31T07:19:49;23.83;;;6.05;;
52208;SDS011;38507;53.132;6.394;2023-07-31T07:22:14;19.00;;;5.75;;
52208;SDS011;38507;53.132;6.394;2023-07-31T07:24:41;17.02;;;6.05;;
52208;SDS011;38507;53.132;6.394;2023-07-31T07:27:07;23.33;;;5.90;;
52208;SDS011;38507;53.132;6.394;2023-07-31T07:29:37;22.15;;;5.90;;
52208;SDS011;38507;53.132;6.394;2023-07-31T07:32:04;17.95;;;7.20;;
52208;SDS011;38507;53.132;6.394;2023-07-31T07:34:30;15.40;;;5.20;;
52208;SDS011;38507;53.132;6.394;2023-07-31T07:36:55;15.98;;;5.55;;
52208;SDS011;38507;53.132;6.394;2023-07-31T07:39:21;10.07;;;4.10;;
52208;SDS011;38507;53.132;6.394;2023-07-31T07:41:47;6.90;;;2.28;;
52208;SDS011;38507;53.132;6.394;2023-07-31T07:44:13;4.32;;;1.48;;
52208;SDS011;38507;53.132;6.394;2023-07-31T07:46:39;5.25;;;1.33;;
52208;SDS011;38507;53.132;6.394;2023-07-31T07:49:05;3.45;;;1.23;;
52208;SDS011;38507;53.132;6.394;2023-07-31T07:51:30;3.42;;;1.20;;
52208;SDS011;38507;53.132;6.394;2023-07-31T07:53:57;3.20;;;1.00;;
52208;SDS011;38507;53.132;6.394;2023-07-31T07:56:23;3.40;;;1.10;;
52208;SDS011;38507;53.132;6.394;2023-07-31T07:58:50;4.38;;;1.45;;
52208;SDS011;38507;53.132;6.394;2023-07-31T08:01:16;3.13;;;1.25;;
52208;SDS011;38507;53.132;6.394;2023-07-31T08:03:41;2.42;;;1.20;;
52208;SDS011;38507;53.132;6.394;2023-07-31T08:06:07;3.00;;;1.17;;
52208;SDS011;38507;53.132;6.394;2023-07-31T08:08:34;2.72;;;1.20;;
52208;SDS011;38507;53.132;6.394;2023-07-31T08:11:00;2.22;;;1.02;;
52208;SDS011;38507;53.132;6.394;2023-07-31T08:13:26;3.25;;;0.98;;
52208;SDS011;38507;53.132;6.394;2023-07-31T08:15:52;2.45;;;1.08;;
52208;SDS011;38507;53.132;6.394;2023-07-31T08:18:17;2.45;;;1.25;;
52208;SDS011;38507;53.132;6.394;2023-07-31T08:20:44;3.33;;;1.00;;
52208;SDS011;38507;53.132;6.394;2023-07-31T08:23:09;3.25;;;1.13;;
52208;SDS011;38507;53.132;6.394;2023-07-31T08:25:36;2.90;;;1.10;;
52208;SDS011;38507;53.132;6.394;2023-07-31T08:28:02;1.33;;;0.80;;
52208;SDS011;38507;53.132;6.394;2023-07-31T08:30:28;2.38;;;1.13;;
52208;SDS011;38507;53.132;6.394;2023-07-31T08:32:54;2.90;;;0.88;;
52208;SDS011;38507;53.132;6.394;2023-07-31T08:35:20;2.35;;;0.80;;
52208;SDS011;38507;53.132;6.394;2023-07-31T08:37:45;2.03;;;0.85;;
52208;SDS011;38507;53.132;6.394;2023-07-31T08:40:11;1.60;;;0.70;;
52208;SDS011;38507;53.132;6.394;2023-07-31T08:42:45;1.65;;;0.70;;
52208;SDS011;38507;53.132;6.394;2023-07-31T08:45:15;1.42;;;0.82;;
52208;SDS011;38507;53.132;6.394;2023-07-31T08:47:44;3.50;;;0.90;;
52208;SDS011;38507;53.132;6.394;2023-07-31T08:50:15;1.65;;;0.70;;
52208;SDS011;38507;53.132;6.394;2023-07-31T08:52:43;1.67;;;0.95;;
52208;SDS011;38507;53.132;6.394;2023-07-31T08:55:09;2.38;;;1.00;;
52208;SDS011;38507;53.132;6.394;2023-07-31T08:57:35;4.47;;;0.85;;
52208;SDS011;38507;53.132;6.394;2023-07-31T09:00:06;2.22;;;1.17;;
52208;SDS011;38507;53.132;6.394;2023-07-31T09:05:28;1.50;;;0.73;;
52208;SDS011;38507;53.132;6.394;2023-07-31T09:07:55;1.67;;;0.98;;
52208;SDS011;38507;53.132;6.394;2023-07-31T09:10:22;2.00;;;1.05;;
52208;SDS011;38507;53.132;6.394;2023-07-31T09:12:49;1.70;;;0.90;;
52208;SDS011;38507;53.132;6.394;2023-07-31T09:15:16;1.63;;;1.00;;
52208;SDS011;38507;53.132;6.394;2023-07-31T09:17:42;3.97;;;0.90;;
52208;SDS011;38507;53.132;6.394;2023-07-31T09:20:20;1.67;;;0.80;;
52208;SDS011;38507;53.132;6.394;2023-07-31T09:22:47;1.83;;;0.80;;
52208;SDS011;38507;53.132;6.394;2023-07-31T09:27:47;0.85;;;0.47;;
52208;SDS011;38507;53.132;6.394;2023-07-31T09:30:23;0.80;;;0.60;;
52208;SDS011;38507;53.132;6.394;2023-07-31T09:32:49;1.35;;;0.70;;
52208;SDS011;38507;53.132;6.394;2023-07-31T09:37:58;0.93;;;0.32;;
52208;SDS011;38507;53.132;6.394;2023-07-31T09:40:38;0.70;;;0.40;;
52208;SDS011;38507;53.132;6.394;2023-07-31T09:43:09;0.98;;;0.40;;
52208;SDS011;38507;53.132;6.394;2023-07-31T09:45:37;3.03;;;0.35;;
52208;SDS011;38507;53.132;6.394;2023-07-31T09:48:07;0.47;;;0.30;;
52208;SDS011;38507;53.132;6.394;2023-07-31T09:50:38;1.97;;;0.37;;
52208;SDS011;38507;53.132;6.394;2023-07-31T09:53:05;1.13;;;0.30;;
52208;SDS011;38507;53.132;6.394;2023-07-31T09:55:31;2.83;;;0.30;;
52208;SDS011;38507;53.132;6.394;2023-07-31T09:57:58;0.68;;;0.30;;
52208;SDS011;38507;53.132;6.394;2023-07-31T10:00:24;0.30;;;0.30;;
52208;SDS011;38507;53.132;6.394;2023-07-31T10:02:52;0.32;;;0.30;;
52208;SDS011;38507;53.132;6.394;2023-07-31T10:05:19;0.25;;;0.20;;
52208;SDS011;38507;53.132;6.394;2023-07-31T10:07:55;0.32;;;0.20;;
52208;SDS011;38507;53.132;6.394;2023-07-31T10:10:22;0.52;;;0.20;;
52208;SDS011;38507;53.132;6.394;2023-07-31T10:12:50;0.80;;;0.28;;
52208;SDS011;38507;53.132;6.394;2023-07-31T10:15:17;0.20;;;0.13;;
52208;SDS011;38507;53.132;6.394;2023-07-31T10:17:43;0.30;;;0.20;;
52208;SDS011;38507;53.132;6.394;2023-07-31T10:20:11;0.50;;;0.25;;
52208;SDS011;38507;53.132;6.394;2023-07-31T10:22:37;2.42;;;0.30;;
52208;SDS011;38507;53.132;6.394;2023-07-31T10:25:04;0.30;;;0.10;;
52208;SDS011;38507;53.132;6.394;2023-07-31T10:27:32;0.10;;;0.10;;
52208;SDS011;38507;53.132;6.394;2023-07-31T10:30:00;0.10;;;0.10;;
52208;SDS011;38507;53.132;6.394;2023-07-31T10:32:29;0.98;;;0.30;;
52208;SDS011;38507;53.132;6.394;2023-07-31T10:34:55;0.88;;;0.15;;
52208;SDS011;38507;53.132;6.394;2023-07-31T10:37:29;2.00;;;0.22;;
52208;SDS011;38507;53.132;6.394;2023-07-31T10:42:32;0.30;;;0.10;;
52208;SDS011;38507;53.132;6.394;2023-07-31T10:45:06;1.10;;;0.20;;
52208;SDS011;38507;53.132;6.394;2023-07-31T10:47:38;0.40;;;0.20;;
52208;SDS011;38507;53.132;6.394;2023-07-31T10:50:20;0.70;;;0.13;;
52208;SDS011;38507;53.132;6.394;2023-07-31T10:55:16;1.17;;;0.20;;
52208;SDS011;38507;53.132;6.394;2023-07-31T10:57:55;0.20;;;0.20;;
52208;SDS011;38507;53.132;6.394;2023-07-31T11:00:31;0.68;;;0.20;;
52208;SDS011;38507;53.132;6.394;2023-07-31T11:08:13;1.58;;;0.63;;
52208;SDS011;38507;53.132;6.394;2023-07-31T11:10:45;1.20;;;0.50;;
52208;SDS011;38507;53.132;6.394;2023-07-31T11:13:11;0.93;;;0.40;;
52208;SDS011;38507;53.132;6.394;2023-07-31T11:15:37;1.70;;;0.30;;
52208;SDS011;38507;53.132;6.394;2023-07-31T11:18:03;0.57;;;0.20;;
52208;SDS011;38507;53.132;6.394;2023-07-31T11:20:31;0.65;;;0.30;;
52208;SDS011;38507;53.132;6.394;2023-07-31T11:23:01;1.60;;;0.40;;
52208;SDS011;38507;53.132;6.394;2023-07-31T11:25:30;0.98;;;0.20;;
52208;SDS011;38507;53.132;6.394;2023-07-31T11:28:04;1.40;;;0.40;;
52208;SDS011;38507;53.132;6.394;2023-07-31T11:30:31;1.70;;;0.45;;
52208;SDS011;38507;53.132;6.394;2023-07-31T11:32:56;2.50;;;0.40;;
52208;SDS011;38507;53.132;6.394;2023-07-31T11:35:22;0.85;;;0.35;;
52208;SDS011;38507;53.132;6.394;2023-07-31T11:37:48;1.15;;;0.40;;
52208;SDS011;38507;53.132;6.394;2023-07-31T11:40:14;1.70;;;0.47;;
52208;SDS011;38507;53.132;6.394;2023-07-31T11:42:40;0.77;;;0.43;;
52208;SDS011;38507;53.132;6.394;2023-07-31T11:45:09;1.85;;;0.43;;
52208;SDS011;38507;53.132;6.394;2023-07-31T11:47:36;1.30;;;0.50;;
52208;SDS011;38507;53.132;6.394;2023-07-31T11:50:03;2.28;;;0.60;;
52208;SDS011;38507;53.132;6.394;2023-07-31T11:52:31;3.55;;;0.63;;
52208;SDS011;38507;53.132;6.394;2023-07-31T11:55:00;2.63;;;0.68;;
52208;SDS011;38507;53.132;6.394;2023-07-31T11:57:26;4.10;;;0.70;;
52208;SDS011;38507;53.132;6.394;2023-07-31T11:59:54;4.13;;;0.85;;
52208;SDS011;38507;53.132;6.394;2023-07-31T12:02:20;3.28;;;1.48;;
52208;SDS011;38507;53.132;6.394;2023-07-31T12:04:46;3.13;;;0.60;;
52208;SDS011;38507;53.132;6.394;2023-07-31T12:07:13;3.03;;;0.73;;
52208;SDS011;38507;53.132;6.394;2023-07-31T12:09:49;3.85;;;0.75;;
52208;SDS011;38507;53.132;6.394;2023-07-31T12:12:25;2.90;;;0.85;;
52208;SDS011;38507;53.132;6.394;2023-07-31T12:14:51;3.85;;;0.90;;
52208;SDS011;38507;53.132;6.394;2023-07-31T12:17:17;5.10;;;1.05;;
52208;SDS011;38507;53.132;6.394;2023-07-31T12:19:45;4.63;;;1.30;;
52208;SDS011;38507;53.132;6.394;2023-07-31T12:22:12;3.97;;;1.25;;
52208;SDS011;38507;53.132;6.394;2023-07-31T12:24:44;2.75;;;0.90;;
52208;SDS011;38507;53.132;6.394;2023-07-31T12:27:14;4.57;;;0.82;;
52208;SDS011;38507;53.132;6.394;2023-07-31T12:29:43;6.38;;;1.17;;
52208;SDS011;38507;53.132;6.394;2023-07-31T12:32:22;5.40;;;1.10;;
52208;SDS011;38507;53.132;6.394;2023-07-31T12:34:50;4.93;;;1.67;;
52208;SDS011;38507;53.132;6.394;2023-07-31T12:37:15;8.35;;;1.50;;
52208;SDS011;38507;53.132;6.394;2023-07-31T12:39:42;9.32;;;1.65;;
52208;SDS011;38507;53.132;6.394;2023-07-31T12:42:07;8.65;;;1.88;;
52208;SDS011;38507;53.132;6.394;2023-07-31T12:44:33;9.00;;;1.50;;
52208;SDS011;38507;53.132;6.394;2023-07-31T12:46:58;6.53;;;2.08;;
52208;SDS011;38507;53.132;6.394;2023-07-31T12:49:24;11.65;;;2.35;;
52208;SDS011;38507;53.132;6.394;2023-07-31T12:51:50;9.30;;;2.30;;
52208;SDS011;38507;53.132;6.394;2023-07-31T12:54:15;5.93;;;1.77;;
52208;SDS011;38507;53.132;6.394;2023-07-31T12:56:41;7.95;;;1.55;;
52208;SDS011;38507;53.132;6.394;2023-07-31T12:59:07;7.30;;;1.90;;
52208;SDS011;38507;53.132;6.394;2023-07-31T13:01:32;10.02;;;2.00;;
52208;SDS011;38507;53.132;6.394;2023-07-31T13:03:58;8.27;;;1.77;;
52208;SDS011;38507;53.132;6.394;2023-07-31T13:06:24;10.93;;;2.00;;
52208;SDS011;38507;53.132;6.394;2023-07-31T13:08:50;10.63;;;2.60;;
52208;SDS011;38507;53.132;6.394;2023-07-31T13:11:16;8.35;;;1.88;;
52208;SDS011;38507;53.132;6.394;2023-07-31T13:13:42;9.90;;;2.67;;
52208;SDS011;38507;53.132;6.394;2023-07-31T13:16:07;10.23;;;2.58;;
52208;SDS011;38507;53.132;6.394;2023-07-31T13:18:33;11.80;;;2.33;;
52208;SDS011;38507;53.132;6.394;2023-07-31T13:20:59;6.95;;;2.00;;
52208;SDS011;38507;53.132;6.394;2023-07-31T13:23:24;7.68;;;2.10;;
52208;SDS011;38507;53.132;6.394;2023-07-31T13:25:50;4.78;;;1.73;;
52208;SDS011;38507;53.132;6.394;2023-07-31T13:28:15;8.18;;;2.30;;
52208;SDS011;38507;53.132;6.394;2023-07-31T13:30:41;9.18;;;2.45;;
52208;SDS011;38507;53.132;6.394;2023-07-31T13:33:07;5.15;;;1.88;;
52208;SDS011;38507;53.132;6.394;2023-07-31T13:35:32;10.63;;;2.15;;
52208;SDS011;38507;53.132;6.394;2023-07-31T13:37:58;9.32;;;2.25;;
52208;SDS011;38507;53.132;6.394;2023-07-31T13:40:24;9.27;;;2.35;;
52208;SDS011;38507;53.132;6.394;2023-07-31T13:42:49;8.82;;;2.20;;
52208;SDS011;38507;53.132;6.394;2023-07-31T13:45:15;7.55;;;2.30;;
52208;SDS011;38507;53.132;6.394;2023-07-31T13:47:40;9.02;;;2.40;;
52208;SDS011;38507;53.132;6.394;2023-07-31T13:50:06;9.85;;;2.65;;
52208;SDS011;38507;53.132;6.394;2023-07-31T13:52:32;9.32;;;2.55;;
52208;SDS011;38507;53.132;6.394;2023-07-31T13:54:58;8.05;;;2.20;;
52208;SDS011;38507;53.132;6.394;2023-07-31T13:57:23;12.80;;;2.20;;
52208;SDS011;38507;53.132;6.394;2023-07-31T13:59:49;5.75;;;2.35;;
52208;SDS011;38507;53.132;6.394;2023-07-31T14:02:14;9.35;;;2.33;;
52208;SDS011;38507;53.132;6.394;2023-07-31T14:04:40;6.93;;;2.13;;
52208;SDS011;38507;53.132;6.394;2023-07-31T14:07:06;7.32;;;2.45;;
52208;SDS011;38507;53.132;6.394;2023-07-31T14:09:32;7.60;;;2.40;;
52208;SDS011;38507;53.132;6.394;2023-07-31T14:11:57;7.35;;;2.28;;
52208;SDS011;38507;53.132;6.394;2023-07-31T14:14:23;11.57;;;3.00;;
52208;SDS011;38507;53.132;6.394;2023-07-31T14:16:49;6.45;;;2.25;;
52208;SDS011;38507;53.132;6.394;2023-07-31T14:19:14;11.40;;;2.85;;
52208;SDS011;38507;53.132;6.394;2023-07-31T14:21:40;9.35;;;2.45;;
52208;SDS011;38507;53.132;6.394;2023-07-31T14:24:06;11.80;;;2.60;;
52208;SDS011;38507;53.132;6.394;2023-07-31T14:26:31;8.80;;;2.63;;
52208;SDS011;38507;53.132;6.394;2023-07-31T14:28:57;12.70;;;2.80;;
52208;SDS011;38507;53.132;6.394;2023-07-31T14:31:22;8.30;;;2.55;;
52208;SDS011;38507;53.132;6.394;2023-07-31T14:33:48;9.07;;;2.88;;
52208;SDS011;38507;53.132;6.394;2023-07-31T14:36:14;11.77;;;3.35;;
52208;SDS011;38507;53.132;6.394;2023-07-31T14:38:39;10.73;;;3.15;;
52208;SDS011;38507;53.132;6.394;2023-07-31T14:41:05;10.05;;;2.90;;
52208;SDS011;38507;53.132;6.394;2023-07-31T14:43:31;10.05;;;3.03;;
52208;SDS011;38507;53.132;6.394;2023-07-31T14:45:57;8.38;;;2.60;;
52208;SDS011;38507;53.132;6.394;2023-07-31T14:48:24;8.38;;;2.55;;
52208;SDS011;38507;53.132;6.394;2023-07-31T14:50:51;10.70;;;3.22;;
52208;SDS011;38507;53.132;6.394;2023-07-31T14:53:16;10.02;;;2.95;;
52208;SDS011;38507;53.132;6.394;2023-07-31T14:55:42;10.25;;;3.20;;
52208;SDS011;38507;53.132;6.394;2023-07-31T14:58:08;9.13;;;2.70;;
52208;SDS011;38507;53.132;6.394;2023-07-31T15:00:35;9.90;;;3.38;;
52208;SDS011;38507;53.132;6.394;2023-07-31T15:03:02;12.88;;;2.85;;
52208;SDS011;38507;53.132;6.394;2023-07-31T15:05:28;14.77;;;2.65;;
52208;SDS011;38507;53.132;6.394;2023-07-31T15:07:54;8.55;;;2.60;;